Time;durP1;ratioP1;P1;durP2;ratioP2;P2;SDS_P1;SDS_P2;PMS_P1;PMS_P2;Temp;Humidity;BMP_temperature;BMP_pressure;BME280_temperature;BME280_humidity;BME280_pressure;Samples;Min_cycle;Max_cycle;Signal;HPM_P1;HPM_P2
2022/08/01 00:01:47;;;;;;;6.93;6.40;;;;;;;23.83;75.28;99077.56;5113753;28;20219;-66
2022/08/01 00:04:13;;;;;;;6.00;5.70;;;;;;;23.75;75.16;99080.00;5112476;28;20199;-67
2022/08/01 00:06:41;;;;;;;6.80;6.50;;;;;;;23.69;75.01;99077.13;5113341;28;20202;-67
2022/08/01 00:09:08;;;;;;;6.50;6.20;;;;;;;23.63;74.42;99062.78;5113414;28;20203;-67
2022/08/01 00:11:35;;;;;;;6.17;5.77;;;;;;;23.59;73.81;99071.88;5113409;28;20206;-67
2022/08/01 00:14:02;;;;;;;6.63;6.33;;;;;;;23.45;73.88;99057.41;5113626;28;20850;-67
2022/08/01 00:16:29;;;;;;;6.10;5.90;;;;;;;23.46;73.34;99073.91;5113118;28;20210;-67
2022/08/01 00:18:56;;;;;;;6.43;6.13;;;;;;;23.40;72.85;99069.22;5113616;28;20210;-67
2022/08/01 00:21:23;;;;;;;6.13;5.83;;;;;;;23.36;73.45;99073.06;5113127;28;20222;-67
2022/08/01 00:23:51;;;;;;;6.47;6.03;;;;;;;23.38;72.34;99071.13;5112585;28;20200;-67
2022/08/01 00:26:18;;;;;;;6.43;6.13;;;;;;;23.34;72.36;99070.56;5113225;28;20199;-67
2022/08/01 00:28:45;;;;;;;6.70;6.40;;;;;;;23.32;73.05;99071.69;5113296;28;20199;-67
2022/08/01 00:31:11;;;;;;;6.17;5.70;;;;;;;22.67;72.37;98962.38;5112850;28;20187;-67
2022/08/01 00:33:38;;;;;;;6.43;6.13;;;;;;;23.34;71.91;99069.75;5113343;28;20217;-67
2022/08/01 00:36:05;;;;;;;7.30;7.00;;;;;;;23.36;72.32;99065.22;5113154;28;20199;-67
2022/08/01 00:38:32;;;;;;;6.80;6.40;;;;;;;23.36;71.90;99073.06;5112883;28;20666;-67
2022/08/01 00:41:00;;;;;;;6.50;6.10;;;;;;;23.29;72.58;99071.94;5113009;28;20217;-67
2022/08/01 00:43:27;;;;;;;6.47;6.17;;;;;;;23.28;72.10;99070.28;5112862;28;20202;-67
2022/08/01 00:45:54;;;;;;;6.60;6.33;;;;;;;23.09;72.56;99041.47;5112962;28;20285;-66
2022/08/01 00:48:21;;;;;;;6.13;5.93;;;;;;;23.28;72.00;99075.50;5111808;27;20213;-67
2022/08/01 00:50:48;;;;;;;6.50;6.20;;;;;;;23.22;73.05;99073.44;5112399;28;20199;-67
2022/08/01 00:53:15;;;;;;;7.07;6.30;;;;;;;23.14;72.74;99068.03;5112759;28;20221;-66
2022/08/01 00:55:42;;;;;;;6.37;6.07;;;;;;;23.11;72.90;99076.13;5111408;28;20199;-67
2022/08/01 00:58:10;;;;;;;6.90;6.60;;;;;;;23.11;72.67;99076.13;5111690;28;20195;-66
2022/08/01 01:00:37;;;;;;;6.40;6.20;;;;;;;23.08;73.30;99071.19;5110490;28;20210;-67
2022/08/01 01:03:04;;;;;;;7.07;6.63;;;;;;;23.07;72.94;99077.38;5112336;28;20267;-67
2022/08/01 01:05:36;;;;;;;6.97;6.43;;;;;;;23.08;73.23;99081.63;5109890;28;20225;-66
2022/08/01 01:08:09;;;;;;;6.37;5.97;;;;;;;23.01;73.25;99068.28;5112374;28;20206;-67
2022/08/01 01:10:44;;;;;;;6.17;5.87;;;;;;;22.90;72.86;99060.53;5110163;28;20199;-67
2022/08/01 01:13:21;;;;;;;6.20;5.90;;;;;;;22.93;73.52;99071.56;5110333;28;20198;-67
2022/08/01 01:15:56;;;;;;;6.53;6.23;;;;;;;22.91;73.05;99078.69;5110341;28;20251;-67
2022/08/01 01:18:28;;;;;;;6.73;6.33;;;;;;;22.81;73.70;99079.63;5110391;28;20214;-67
2022/08/01 01:21:09;;;;;;;6.07;5.87;;;;;;;22.79;73.74;99069.28;5110537;28;20255;-67
2022/08/01 01:23:51;;;;;;;6.27;5.97;;;;;;;22.78;73.64;99072.06;5110495;28;20214;-67
2022/08/01 01:26:40;;;;;;;5.87;5.67;;;;;;;22.76;73.79;99073.94;5110123;28;20205;-66
2022/08/01 01:29:16;;;;;;;6.27;5.87;;;;;;;22.76;73.71;99074.78;5112179;28;20681;-67
2022/08/01 01:31:48;;;;;;;6.70;6.40;;;;;;;22.78;74.04;99072.06;5109975;28;20198;-67
2022/08/01 01:34:20;;;;;;;5.80;5.60;;;;;;;22.75;74.01;99070.50;5111240;28;20205;-66
2022/08/01 01:36:49;;;;;;;6.63;6.33;;;;;;;22.71;74.03;99074.34;5111779;28;20198;-67
2022/08/01 01:39:16;;;;;;;5.90;5.70;;;;;;;22.67;74.27;99067.72;5111803;28;20194;-67
2022/08/01 01:41:45;;;;;;;7.40;7.00;;;;;;;22.62;74.44;99075.09;5110815;28;20222;-67
2022/08/01 01:44:14;;;;;;;6.53;6.27;;;;;;;22.52;75.28;99067.19;5111728;28;20198;-67
2022/08/01 01:46:42;;;;;;;6.63;6.23;;;;;;;22.54;75.31;99069.69;5112100;28;20205;-66
2022/08/01 01:49:10;;;;;;;6.47;6.10;;;;;;;22.47;75.43;99060.72;5111235;28;20206;-66
2022/08/01 01:51:40;;;;;;;6.40;6.20;;;;;;;22.43;76.24;99061.91;5111878;28;20199;-66
2022/08/01 01:54:09;;;;;;;6.30;6.00;;;;;;;22.37;76.40;99052.81;5111479;27;20208;-67
2022/08/01 01:56:48;;;;;;;7.07;6.70;;;;;;;22.36;76.45;99060.78;5111279;28;20689;-66
2022/08/01 01:59:20;;;;;;;6.47;6.10;;;;;;;22.32;76.45;99060.22;5110702;28;20545;-66
2022/08/01 02:01:49;;;;;;;6.97;6.67;;;;;;;22.26;76.39;99065.94;5111351;28;20656;-66
2022/08/01 02:04:17;;;;;;;7.10;6.70;;;;;;;22.27;76.16;99066.78;5111069;28;20244;-67
2022/08/01 02:06:47;;;;;;;5.90;5.70;;;;;;;22.11;76.38;99046.34;5111160;28;20259;-67
2022/08/01 02:09:18;;;;;;;7.07;6.67;;;;;;;22.24;76.44;99067.03;5110467;28;20275;-67
2022/08/01 02:11:46;;;;;;;6.20;5.90;;;;;;;22.18;76.85;99063.16;5110953;28;20190;-67
2022/08/01 02:14:15;;;;;;;6.33;5.93;;;;;;;22.18;76.66;99068.38;5110891;28;20206;-66
2022/08/01 02:16:47;;;;;;;6.43;6.13;;;;;;;22.16;76.56;99064.25;5111173;28;20198;-66
2022/08/01 02:19:15;;;;;;;6.30;6.03;;;;;;;22.19;76.85;99074.44;5111435;28;20190;-67
2022/08/01 02:21:47;;;;;;;6.43;6.13;;;;;;;22.21;76.61;99072.50;5110918;28;20271;-66
2022/08/01 02:24:17;;;;;;;6.50;6.23;;;;;;;22.22;76.60;99066.34;5110792;28;20206;-66
2022/08/01 02:26:50;;;;;;;6.27;5.97;;;;;;;22.17;76.28;99071.09;5110893;28;20195;-67
2022/08/01 02:29:22;;;;;;;6.00;5.80;;;;;;;22.12;75.81;99068.88;5111160;28;20259;-67
2022/08/01 02:31:54;;;;;;;6.40;6.20;;;;;;;22.08;75.77;99066.63;5108285;28;20214;-67
2022/08/01 02:34:23;;;;;;;5.67;5.40;;;;;;;22.07;75.28;99065.81;5110751;28;20190;-66
2022/08/01 02:36:52;;;;;;;5.77;5.57;;;;;;;22.05;74.91;99062.50;5110691;28;20581;-67
2022/08/01 02:39:20;;;;;;;6.00;5.80;;;;;;;22.07;74.75;99065.00;5110588;28;20532;-66
2022/08/01 02:41:51;;;;;;;5.23;5.03;;;;;;;22.05;74.29;99072.13;5110522;28;20301;-66
2022/08/01 02:44:24;;;;;;;5.20;5.00;;;;;;;21.90;74.15;99042.91;5110411;28;20195;-67
2022/08/01 02:46:57;;;;;;;5.40;5.17;;;;;;;21.98;74.07;99067.41;5110537;28;20187;-66
2022/08/01 02:49:27;;;;;;;5.53;5.23;;;;;;;22.03;73.87;99063.59;5110540;28;20202;-66
2022/08/01 02:51:56;;;;;;;5.07;4.87;;;;;;;22.02;74.01;99056.72;5109418;28;20195;-67
2022/08/01 02:54:24;;;;;;;5.03;4.83;;;;;;;21.95;74.37;99067.66;5110114;28;20214;-66
2022/08/01 02:56:52;;;;;;;5.87;5.57;;;;;;;21.97;74.07;99064.94;5109251;28;20293;-67
2022/08/01 02:59:25;;;;;;;4.97;4.77;;;;;;;21.94;74.11;99059.94;5108698;28;20199;-67
2022/08/01 03:01:56;;;;;;;4.90;4.70;;;;;;;21.93;74.08;99064.34;5110212;28;20217;-67
2022/08/01 03:04:24;;;;;;;5.10;4.80;;;;;;;21.91;74.04;99066.25;5109065;28;20202;-67
2022/08/01 03:06:55;;;;;;;4.90;4.70;;;;;;;21.89;73.72;99067.31;5110462;28;20195;-67
2022/08/01 03:09:23;;;;;;;5.17;4.97;;;;;;;21.86;74.42;99073.59;5109746;28;20202;-67
2022/08/01 03:11:52;;;;;;;4.63;4.43;;;;;;;21.79;74.29;99067.22;5110732;28;20270;-67
2022/08/01 03:14:21;;;;;;;5.10;4.80;;;;;;;21.79;74.61;99062.00;5110196;28;20195;-68
2022/08/01 03:16:51;;;;;;;4.93;4.60;;;;;;;21.73;74.31;99066.88;5110353;28;20662;-66
2022/08/01 03:19:21;;;;;;;9.67;5.17;;;;;;;21.54;74.43;99041.47;5108294;28;20578;-66
2022/08/01 03:21:49;;;;;;;4.40;4.20;;;;;;;21.69;73.94;99055.88;5108305;28;20233;-67
2022/08/01 03:24:17;;;;;;;5.27;5.07;;;;;;;21.69;74.27;99063.69;5108421;28;20605;-66
2022/08/01 03:26:45;;;;;;;5.17;4.93;;;;;;;21.70;74.27;99064.53;5108026;28;20199;-67
2022/08/01 03:29:16;;;;;;;4.03;3.87;;;;;;;21.72;74.64;99076.50;5108190;28;20582;-66
2022/08/01 03:31:47;;;;;;;5.03;4.80;;;;;;;21.59;73.79;99049.72;5108441;28;20191;-67
2022/08/01 03:34:14;;;;;;;4.37;4.17;;;;;;;21.75;73.86;99065.81;5109939;28;20704;-67
2022/08/01 03:36:47;;;;;;;5.33;5.13;;;;;;;21.68;73.67;99054.19;5109761;28;20202;-67
2022/08/01 03:39:15;;;;;;;5.37;4.93;;;;;;;21.64;73.80;99059.81;5110254;28;20255;-67
2022/08/01 03:41:47;;;;;;;7.30;5.23;;;;;;;21.76;73.97;99064.88;5109888;28;20737;-67
2022/08/01 03:44:17;;;;;;;5.67;4.80;;;;;;;21.79;73.86;99072.44;5110042;28;20202;-66
2022/08/01 03:46:46;;;;;;;5.03;4.83;;;;;;;21.85;73.54;99071.09;5109796;28;20692;-67
2022/08/01 03:49:18;;;;;;;5.20;4.83;;;;;;;21.84;73.64;99072.06;5110290;28;20199;-67
2022/08/01 03:51:49;;;;;;;4.90;4.30;;;;;;;21.96;73.09;99069.31;5109230;28;20220;-67
2022/08/01 03:54:21;;;;;;;5.30;4.90;;;;;;;22.02;72.44;99077.59;5107688;28;20202;-67
2022/08/01 03:56:49;;;;;;;5.90;4.67;;;;;;;22.05;72.57;99079.94;5108767;28;20198;-67
2022/08/01 03:59:18;;;;;;;4.80;4.60;;;;;;;22.10;71.76;99075.19;5112142;28;20202;-67
2022/08/01 04:01:47;;;;;;;4.80;4.47;;;;;;;22.11;71.38;99072.44;5113330;28;20203;-67
2022/08/01 04:04:14;;;;;;;4.67;4.47;;;;;;;22.15;70.66;99084.28;5113514;28;20199;-67
2022/08/01 04:06:43;;;;;;;4.43;4.23;;;;;;;22.18;71.16;99078.81;5113564;28;20191;-67
2022/08/01 04:09:12;;;;;;;28.10;7.23;;;;;;;22.09;71.64;99057.88;5113503;28;20199;-66
2022/08/01 04:11:39;;;;;;;5.07;4.83;;;;;;;22.26;71.41;99081.59;5113770;28;20235;-67
2022/08/01 04:14:06;;;;;;;4.43;4.13;;;;;;;22.30;70.85;99076.97;5113295;28;20202;-67
2022/08/01 04:16:33;;;;;;;5.33;4.93;;;;;;;22.30;70.66;99071.72;5113827;28;20201;-67
2022/08/01 04:18:59;;;;;;;4.97;4.57;;;;;;;22.43;70.05;99069.75;5113331;28;20198;-67
2022/08/01 04:21:30;;;;;;;5.03;4.83;;;;;;;22.48;69.84;99080.66;5113598;28;20563;-67
2022/08/01 04:24:01;;;;;;;7.37;4.57;;;;;;;22.63;70.26;99078.53;5113027;28;20271;-67
2022/08/01 04:26:31;;;;;;;4.50;4.30;;;;;;;22.74;68.91;99079.31;5113473;28;20198;-67
2022/08/01 04:28:58;;;;;;;3.90;3.80;;;;;;;22.82;68.36;99082.09;5111659;28;20206;-67
2022/08/01 04:31:26;;;;;;;4.83;3.77;;;;;;;22.94;67.53;99083.66;5112774;28;20195;-67
2022/08/01 04:33:56;;;;;;;3.87;3.57;;;;;;;23.07;67.84;99078.19;5113274;28;20195;-67
2022/08/01 04:36:24;;;;;;;4.33;4.13;;;;;;;23.19;68.43;99081.53;5113006;28;20264;-67
2022/08/01 04:38:55;;;;;;;4.10;3.90;;;;;;;23.26;65.74;99077.44;5113255;28;20195;-67
2022/08/01 04:41:24;;;;;;;4.67;4.47;;;;;;;23.30;65.86;99069.19;5112701;28;20214;-67
2022/08/01 04:43:54;;;;;;;4.43;4.23;;;;;;;23.50;66.36;99076.13;5113125;28;20214;-67
2022/08/01 04:46:22;;;;;;;3.93;3.83;;;;;;;23.67;65.22;99081.66;5112289;28;20222;-67
2022/08/01 04:48:50;;;;;;;3.73;3.63;;;;;;;23.71;65.39;99062.94;5111776;27;20252;-67
2022/08/01 04:51:21;;;;;;;3.90;3.80;;;;;;;24.00;63.47;99069.00;5111030;28;20199;-67
2022/08/01 04:53:50;;;;;;;4.43;3.90;;;;;;;24.14;64.77;99074.78;5112736;28;20260;-67
2022/08/01 04:56:18;;;;;;;4.37;4.17;;;;;;;24.34;63.57;99081.66;5112051;28;20578;-67
2022/08/01 04:58:45;;;;;;;3.83;3.53;;;;;;;24.50;63.07;99077.50;5112780;28;20195;-67
2022/08/01 05:01:15;;;;;;;3.80;3.70;;;;;;;24.51;62.40;99067.84;5109160;28;20199;-67
2022/08/01 05:03:42;;;;;;;4.47;4.17;;;;;;;24.63;63.99;99090.28;5111653;28;20206;-67
2022/08/01 05:06:09;;;;;;;3.83;3.70;;;;;;;24.66;61.94;99071.66;5112637;28;20233;-67
2022/08/01 05:08:36;;;;;;;3.50;3.40;;;;;;;24.80;60.82;99083.47;5112402;28;20195;-67
2022/08/01 05:11:03;;;;;;;3.20;3.00;;;;;;;24.99;63.55;99080.81;5113154;28;20610;-67
2022/08/01 05:13:30;;;;;;;3.87;3.67;;;;;;;25.19;60.46;99079.75;5112080;28;20191;-67
2022/08/01 05:15:57;;;;;;;3.70;3.40;;;;;;;25.40;60.43;99082.09;5112678;28;20585;-67
2022/08/01 05:18:26;;;;;;;3.40;3.27;;;;;;;25.55;58.54;99092.00;5111681;28;20206;-65
2022/08/01 05:20:53;;;;;;;2.90;2.80;;;;;;;25.61;60.22;99084.50;5109608;28;20198;-65
2022/08/01 05:23:20;;;;;;;14.97;3.60;;;;;;;25.69;58.32;99087.22;5111443;28;20685;-68
2022/08/01 05:25:48;;;;;;;4.30;2.90;;;;;;;25.92;59.87;99083.97;5110706;28;20199;-61
2022/08/01 05:28:15;;;;;;;2.77;2.57;;;;;;;26.03;58.64;99075.03;5111337;28;20256;-65
2022/08/01 05:30:42;;;;;;;2.50;2.40;;;;;;;26.15;57.29;99071.19;5110792;28;20206;-66
2022/08/01 05:33:08;;;;;;;2.73;2.60;;;;;;;26.26;54.60;99075.41;5111487;28;20581;-66
2022/08/01 05:35:37;;;;;;;2.60;2.40;;;;;;;26.36;54.33;99073.53;5111380;28;20290;-68
2022/08/01 05:38:04;;;;;;;4.03;2.37;;;;;;;26.47;53.41;99081.13;5109793;28;20202;-66
2022/08/01 05:40:31;;;;;;;2.07;2.03;;;;;;;26.56;52.49;99090.72;5110591;28;20673;-65
2022/08/01 05:42:58;;;;;;;2.63;2.43;;;;;;;26.64;53.49;99080.25;5111064;28;20697;-65
2022/08/01 05:45:24;;;;;;;2.40;2.23;;;;;;;26.75;51.47;99072.13;5107881;28;20203;-68
2022/08/01 05:47:51;;;;;;;2.57;1.73;;;;;;;26.95;52.04;99083.22;5110406;28;20554;-68
2022/08/01 05:50:18;;;;;;;2.60;2.50;;;;;;;27.20;51.47;99081.53;5109726;28;20206;-67
2022/08/01 05:52:46;;;;;;;2.90;2.70;;;;;;;27.34;53.21;99084.38;5107066;28;20199;-64
2022/08/01 05:55:13;;;;;;;2.73;2.33;;;;;;;27.54;52.20;99084.94;5108154;28;20608;-63
2022/08/01 05:57:40;;;;;;;2.53;2.43;;;;;;;27.81;49.80;99091.75;5109518;27;20210;-64
2022/08/01 06:00:09;;;;;;;2.50;2.40;;;;;;;27.85;50.44;99093.88;5109260;28;20206;-63
2022/08/01 06:02:41;;;;;;;3.57;2.53;;;;;;;27.97;50.76;99076.78;5109311;28;20225;-63
2022/08/01 06:05:08;;;;;;;2.07;1.97;;;;;;;28.13;50.41;99071.56;5109374;28;20237;-64
2022/08/01 06:07:35;;;;;;;2.60;2.50;;;;;;;28.30;46.35;99079.44;5110142;28;20673;-63
2022/08/01 06:10:04;;;;;;;1.93;1.83;;;;;;;28.25;43.98;99079.09;5110090;28;20280;-64
2022/08/01 06:12:33;;;;;;;2.17;1.70;;;;;;;28.14;44.41;99073.19;5108920;28;20194;-63
2022/08/01 06:15:00;;;;;;;2.63;1.80;;;;;;;28.15;44.34;99072.19;5110253;28;20211;-64
2022/08/01 06:17:27;;;;;;;2.00;1.90;;;;;;;28.10;45.11;99076.31;5109714;28;20199;-63
2022/08/01 06:19:54;;;;;;;1.50;1.50;;;;;;;28.23;45.83;99065.28;5109683;28;20206;-63
2022/08/01 06:22:20;;;;;;;5.23;1.47;;;;;;;28.46;44.75;99063.59;5107012;28;20206;-64
2022/08/01 06:24:47;;;;;;;1.50;1.40;;;;;;;28.56;42.58;99061.59;5108455;28;20202;-63
2022/08/01 06:27:15;;;;;;;1.50;1.40;;;;;;;28.71;41.16;99056.47;5108793;28;20202;-64
2022/08/01 06:29:43;;;;;;;1.47;1.47;;;;;;;28.77;41.71;99058.44;5109087;28;20206;-63
2022/08/01 06:32:10;;;;;;;2.13;1.60;;;;;;;28.86;41.83;99063.50;5109517;28;20667;-63
2022/08/01 06:34:37;;;;;;;1.60;1.50;;;;;;;29.12;39.82;99057.97;5109504;28;20190;-63
2022/08/01 06:37:03;;;;;;;2.67;1.80;;;;;;;29.15;38.87;99065.53;5110215;28;20202;-63
2022/08/01 06:39:30;;;;;;;3.20;1.63;;;;;;;29.28;42.21;99059.72;5110113;28;20195;-75
2022/08/01 06:41:57;;;;;;;1.85;1.75;;;;;;;29.48;40.59;99053.00;5110269;28;20207;-64
2022/08/01 06:44:25;;;;;;;2.05;1.38;;;;;;;29.72;40.35;99060.78;5108075;28;20238;-63
2022/08/01 06:46:52;;;;;;;2.03;1.60;;;;;;;29.79;38.46;99051.13;5108605;28;20202;-63
2022/08/01 06:49:19;;;;;;;3.20;1.83;;;;;;;29.64;40.15;99060.81;5109690;28;20217;-63
2022/08/01 06:51:46;;;;;;;6.95;1.90;;;;;;;29.77;39.56;99057.59;5109924;28;20680;-64
2022/08/01 06:54:12;;;;;;;2.33;1.40;;;;;;;29.83;40.47;99055.09;5109906;28;20199;-63
2022/08/01 06:56:39;;;;;;;2.17;1.70;;;;;;;29.84;39.57;99054.09;5109370;28;20214;-63
2022/08/01 06:59:06;;;;;;;2.00;1.90;;;;;;;30.07;38.58;99060.19;5107454;28;20597;-63
2022/08/01 07:01:34;;;;;;;2.78;1.77;;;;;;;30.17;38.36;99057.31;5109112;28;20206;-63
2022/08/01 07:04:02;;;;;;;1.88;1.40;;;;;;;30.23;38.15;99053.13;5108744;28;20222;-63
2022/08/01 07:06:29;;;;;;;1.77;1.67;;;;;;;30.08;38.63;99042.53;5109451;28;20229;-63
2022/08/01 07:08:55;;;;;;;1.48;1.48;;;;;;;30.18;39.09;99040.41;5109471;28;20203;-64
2022/08/01 07:11:24;;;;;;;1.50;1.40;;;;;;;30.19;39.92;99037.59;5109548;28;20207;-64
2022/08/01 07:13:51;;;;;;;1.88;1.77;;;;;;;30.03;38.84;99037.75;5109674;28;20638;-63
2022/08/01 07:16:18;;;;;;;5.25;1.40;;;;;;;30.35;38.70;99035.78;5109371;28;20202;-64
2022/08/01 07:18:46;;;;;;;4.35;1.83;;;;;;;30.61;36.66;99036.22;5109342;28;20202;-64
2022/08/01 07:21:13;;;;;;;1.77;1.67;;;;;;;30.57;36.09;99034.94;5109188;28;20203;-63
2022/08/01 07:23:40;;;;;;;1.10;1.10;;;;;;;30.67;35.13;99036.31;5109395;28;20214;-63
2022/08/01 07:26:07;;;;;;;1.20;1.20;;;;;;;30.83;34.78;99034.47;5107849;28;20550;-63
2022/08/01 07:28:34;;;;;;;1.48;1.38;;;;;;;30.70;35.44;99038.59;5110022;28;20247;-63
2022/08/01 07:31:00;;;;;;;1.40;1.38;;;;;;;30.83;35.25;99043.22;5109794;28;20664;-75
2022/08/01 07:33:27;;;;;;;2.47;2.28;;;;;;;30.86;35.57;99037.56;5112209;28;20195;-65
2022/08/01 07:35:55;;;;;;;3.22;1.88;;;;;;;30.88;35.48;99037.38;5113671;28;20210;-64
2022/08/01 07:38:22;;;;;;;1.52;1.42;;;;;;;31.05;34.11;99034.38;5107428;28;20209;-64
2022/08/01 07:40:49;;;;;;;3.10;1.20;;;;;;;31.24;35.40;99035.63;5110789;28;20578;-62
2022/08/01 07:43:16;;;;;;;1.75;1.40;;;;;;;31.27;36.54;99027.31;5112421;28;20218;-64
2022/08/01 07:45:43;;;;;;;1.33;1.27;;;;;;;31.29;35.69;99019.16;5112335;28;20203;-62
2022/08/01 07:48:09;;;;;;;1.38;1.30;;;;;;;31.49;34.34;99030.78;5112780;28;20263;-61
2022/08/01 07:50:36;;;;;;;7.25;1.50;;;;;;;31.37;34.05;99027.81;5113405;28;20194;-62
2022/08/01 07:53:04;;;;;;;3.85;1.50;;;;;;;31.49;33.62;99033.44;5112120;28;20199;-62
2022/08/01 07:55:31;;;;;;;2.35;1.40;;;;;;;31.42;35.19;99030.72;5104907;28;20203;-62
2022/08/01 07:57:58;;;;;;;1.73;1.40;;;;;;;31.33;36.11;99023.06;5100815;28;20226;-62
2022/08/01 08:00:27;;;;;;;1.25;1.25;;;;;;;31.42;35.33;99024.59;5111501;28;20694;-62
2022/08/01 08:02:54;;;;;;;1.27;1.27;;;;;;;31.60;34.63;99025.03;5113057;28;20199;-62
2022/08/01 08:05:22;;;;;;;2.28;1.40;;;;;;;31.66;35.04;99017.16;5112252;28;20752;-62
2022/08/01 08:07:49;;;;;;;1.30;0.98;;;;;;;31.57;33.79;99020.09;5112308;28;20199;-62
2022/08/01 08:10:17;;;;;;;1.13;1.02;;;;;;;31.70;35.81;99007.78;5111247;28;20199;-62
2022/08/01 08:12:46;;;;;;;1.45;1.35;;;;;;;31.89;35.46;99001.00;5113597;28;20575;-61
2022/08/01 08:15:13;;;;;;;4.43;1.30;;;;;;;32.06;35.27;98997.09;5112177;28;20229;-62
2022/08/01 08:17:40;;;;;;;1.85;1.48;;;;;;;32.18;33.67;99000.06;5109082;27;20221;-62
2022/08/01 08:20:09;;;;;;;6.55;1.90;;;;;;;32.23;35.50;98997.63;5111588;28;20290;-62
2022/08/01 08:22:37;;;;;;;3.38;2.08;;;;;;;32.22;32.71;98996.78;5111518;28;20201;-62
2022/08/01 08:25:05;;;;;;;3.30;1.48;;;;;;;32.13;32.09;99005.09;5112824;28;20230;-62
2022/08/01 08:27:33;;;;;;;2.13;2.05;;;;;;;32.13;33.20;99002.44;5109137;28;20200;-62
2022/08/01 08:30:01;;;;;;;1.27;1.27;;;;;;;32.15;34.26;98995.94;5111706;28;20202;-62
2022/08/01 08:32:28;;;;;;;1.23;1.23;;;;;;;32.30;33.57;99005.63;5110490;27;20665;-62
2022/08/01 08:34:55;;;;;;;2.45;1.23;;;;;;;32.29;32.10;99001.31;5107673;28;20203;-62
2022/08/01 08:37:22;;;;;;;6.97;1.13;;;;;;;32.14;32.17;98999.63;5110650;28;20642;-62
2022/08/01 08:39:49;;;;;;;2.75;1.35;;;;;;;32.17;31.99;98996.56;5112396;28;20241;-62
2022/08/01 08:42:16;;;;;;;4.15;1.65;;;;;;;32.25;32.00;99001.72;5109778;28;20229;-61
2022/08/01 08:44:44;;;;;;;1.00;1.00;;;;;;;32.29;33.28;99006.63;5102972;28;20235;-61
2022/08/01 08:47:13;;;;;;;1.75;1.42;;;;;;;32.31;33.61;99004.63;5109626;28;20198;-61
2022/08/01 08:49:44;;;;;;;1.10;1.10;;;;;;;32.27;34.39;98987.44;5111575;28;20202;-62
2022/08/01 08:52:12;;;;;;;5.05;1.48;;;;;;;32.35;32.66;98987.28;5113020;28;20631;-61
2022/08/01 08:54:42;;;;;;;6.00;1.40;;;;;;;32.14;33.91;98989.00;5112724;28;20662;-60
2022/08/01 08:57:11;;;;;;;2.00;1.77;;;;;;;32.12;32.78;98993.66;5112289;28;20206;-60
2022/08/01 08:59:39;;;;;;;2.33;0.90;;;;;;;32.09;34.13;98978.13;5112792;28;20238;-59
2022/08/01 09:02:09;;;;;;;19.13;2.58;;;;;;;31.98;34.61;98989.25;5111840;28;20677;-60
2022/08/01 09:04:36;;;;;;;3.60;1.33;;;;;;;31.71;34.03;98979.44;5110523;28;20256;-58
2022/08/01 09:07:05;;;;;;;1.67;1.30;;;;;;;31.94;34.20;98982.69;5112025;28;20252;-60
2022/08/01 09:09:33;;;;;;;1.17;1.17;;;;;;;32.09;34.56;98988.75;5112259;28;20199;-60
2022/08/01 09:12:00;;;;;;;1.33;1.05;;;;;;;32.27;33.80;98987.44;5111135;28;20199;-60
2022/08/01 09:14:30;;;;;;;1.10;0.95;;;;;;;32.34;34.41;98977.69;5111919;28;20662;-60
2022/08/01 09:17:02;;;;;;;1.00;1.00;;;;;;;32.33;32.88;98978.69;5110103;28;20261;-60
2022/08/01 09:19:38;;;;;;;1.30;1.20;;;;;;;32.38;34.88;98969.13;5110384;28;20202;-60
2022/08/01 09:22:07;;;;;;;2.65;1.20;;;;;;;32.56;33.85;98976.59;5110103;28;20685;-60
2022/08/01 09:24:35;;;;;;;1.85;1.30;;;;;;;32.61;32.22;98977.66;5110238;28;20590;-60
2022/08/01 09:27:15;;;;;;;1.20;1.10;;;;;;;32.60;33.31;98968.03;5106458;28;20206;-60
2022/08/01 09:29:44;;;;;;;2.38;1.13;;;;;;;32.28;32.72;98957.25;5111166;28;20198;-61
2022/08/01 09:32:11;;;;;;;8.90;3.10;;;;;;;32.01;32.79;98967.66;5109572;28;20198;-62
2022/08/01 09:34:39;;;;;;;3.38;1.30;;;;;;;32.07;34.10;98956.31;5110371;28;20206;-64
2022/08/01 09:37:06;;;;;;;1.10;1.00;;;;;;;32.24;34.19;98962.13;5109831;28;20203;-65
2022/08/01 09:39:39;;;;;;;1.20;1.10;;;;;;;32.25;34.57;98961.91;5108370;28;20220;-66
2022/08/01 09:42:21;;;;;;;1.23;1.23;;;;;;;32.23;33.82;98961.31;5110395;28;20217;-66
2022/08/01 09:44:48;;;;;;;1.20;1.10;;;;;;;32.30;32.96;98963.19;5110124;28;20229;-65
2022/08/01 09:47:16;;;;;;;1.00;1.00;;;;;;;32.45;35.78;98951.41;5108623;28;20737;-66
2022/08/01 09:49:45;;;;;;;1.05;0.95;;;;;;;32.39;34.73;98954.03;5110296;28;20206;-67
2022/08/01 09:52:14;;;;;;;1.08;1.08;;;;;;;32.60;33.15;98968.03;5107200;28;20203;-68
2022/08/01 09:54:42;;;;;;;1.50;1.25;;;;;;;32.59;32.86;98955.00;5110088;28;20198;-68
2022/08/01 09:57:12;;;;;;;0.80;0.80;;;;;;;32.44;31.68;98941.81;5107671;27;20191;-66
2022/08/01 09:59:42;;;;;;;1.67;1.00;;;;;;;32.42;33.13;98954.47;5109507;28;20289;-64
2022/08/01 10:02:13;;;;;;;0.95;0.95;;;;;;;32.42;32.03;98951.00;5108783;28;20293;-61
2022/08/01 10:04:49;;;;;;;1.05;1.05;;;;;;;32.60;34.25;98953.97;5108551;28;20271;-64
2022/08/01 10:07:16;;;;;;;0.77;0.77;;;;;;;32.32;32.52;98935.44;5109060;28;20206;-63
2022/08/01 10:09:43;;;;;;;1.00;1.00;;;;;;;32.48;34.53;98947.53;5109024;28;20194;-62
2022/08/01 10:12:11;;;;;;;1.00;1.00;;;;;;;32.60;33.93;98953.97;5108793;28;20691;-63
2022/08/01 10:14:40;;;;;;;2.00;1.10;;;;;;;32.63;35.02;98945.63;5109259;28;20210;-62
2022/08/01 10:17:09;;;;;;;1.52;1.00;;;;;;;32.70;34.59;98947.25;5105975;28;20195;-64
2022/08/01 10:19:37;;;;;;;1.25;1.25;;;;;;;32.54;32.52;98947.56;5103175;28;20297;-62
2022/08/01 10:22:08;;;;;;;4.97;1.30;;;;;;;32.48;34.53;98947.53;5106178;28;20676;-62
2022/08/01 10:24:37;;;;;;;1.58;1.35;;;;;;;32.49;33.32;98938.56;5109730;28;20218;-63
2022/08/01 10:27:06;;;;;;;0.73;0.73;;;;;;;32.63;34.35;98935.84;5108828;28;20709;-63
2022/08/01 10:29:37;;;;;;;1.23;1.23;;;;;;;32.78;35.13;98940.97;5110712;28;20202;-62
2022/08/01 10:32:05;;;;;;;1.52;1.23;;;;;;;32.64;34.83;98894.16;5110058;28;20203;-62
2022/08/01 10:34:34;;;;;;;1.15;1.15;;;;;;;32.93;33.72;98941.63;5109445;28;20255;-63
2022/08/01 10:37:01;;;;;;;1.35;1.17;;;;;;;32.75;32.61;98931.56;5109043;28;20210;-62
2022/08/01 10:39:31;;;;;;;1.10;1.10;;;;;;;32.74;36.07;98947.69;5109546;28;20675;-63
2022/08/01 10:41:59;;;;;;;1.20;1.20;;;;;;;32.89;32.50;98944.91;5109622;28;20214;-62
2022/08/01 10:44:27;;;;;;;1.35;1.25;;;;;;;32.87;33.81;98930.97;5109863;28;20229;-63
2022/08/01 10:46:58;;;;;;;1.38;1.38;;;;;;;32.91;34.51;98941.03;5108842;28;20206;-63
2022/08/01 10:49:29;;;;;;;3.22;1.13;;;;;;;32.85;32.71;98938.34;5108608;28;20202;-65
2022/08/01 10:51:56;;;;;;;1.10;1.10;;;;;;;32.76;32.66;98921.78;5109291;28;20195;-66
2022/08/01 10:54:25;;;;;;;2.38;1.50;;;;;;;32.81;34.47;98932.59;5108821;28;20249;-66
2022/08/01 10:56:56;;;;;;;1.75;1.30;;;;;;;32.88;32.77;98936.09;5109196;28;20198;-66
2022/08/01 10:59:26;;;;;;;2.35;1.30;;;;;;;32.99;37.28;98918.78;5108713;28;20206;-65
2022/08/01 11:01:58;;;;;;;1.30;1.30;;;;;;;33.14;33.69;98938.88;5108711;28;20285;-65
2022/08/01 11:04:34;;;;;;;1.40;1.40;;;;;;;33.24;34.50;98928.66;5107806;28;20221;-65
2022/08/01 11:07:06;;;;;;;1.42;1.42;;;;;;;33.31;33.90;98936.66;5108144;28;20690;-64
2022/08/01 11:09:41;;;;;;;1.48;1.30;;;;;;;33.18;33.41;98929.44;5108232;28;20201;-64
2022/08/01 11:12:12;;;;;;;1.08;1.08;;;;;;;33.24;33.21;98928.66;5108157;28;20669;-64
2022/08/01 11:15:15;;;;;;;1.23;1.23;;;;;;;33.39;35.21;98925.81;5108180;28;20205;-63
2022/08/01 11:17:47;;;;;;;1.20;1.20;;;;;;;33.46;34.30;98931.13;5101644;28;20198;-63
2022/08/01 11:20:15;;;;;;;4.68;1.52;;;;;;;33.42;33.54;98925.41;5107621;28;20198;-64
2022/08/01 11:23:16;;;;;;;1.48;1.30;;;;;;;33.34;32.67;98920.28;5108808;28;20241;-64
2022/08/01 11:26:09;;;;;;;3.40;1.52;;;;;;;33.49;34.54;98912.94;5109087;28;20210;-63
2022/08/01 11:28:38;;;;;;;1.33;1.33;;;;;;;33.47;32.90;98912.34;5108245;28;20198;-64
2022/08/01 11:31:28;;;;;;;1.58;1.48;;;;;;;33.53;32.61;98900.06;5108019;28;20308;-62
2022/08/01 11:33:55;;;;;;;1.00;1.00;;;;;;;33.58;32.25;98902.91;5106898;28;20206;-63
2022/08/01 11:36:22;;;;;;;1.30;1.30;;;;;;;33.42;32.92;98913.94;5109013;28;20225;-62
2022/08/01 11:39:11;;;;;;;4.30;1.50;;;;;;;33.28;33.47;98903.31;5108362;28;20198;-63
2022/08/01 11:41:39;;;;;;;1.60;1.27;;;;;;;33.23;33.57;98900.44;5104965;28;20206;-63
2022/08/01 11:44:08;;;;;;;2.67;1.00;;;;;;;33.21;33.86;98907.00;5103415;28;20210;-63